createdAt,value
2022-11-15T00:02:27.658Z,24.23
2022-11-15T00:05:08.063Z,27.80
2022-11-15T00:07:55.622Z,26.80
2022-11-15T00:10:37.853Z,29.37
2022-11-15T00:13:18.374Z,29.27
2022-11-15T00:16:01.539Z,26.63
2022-11-15T00:18:46.405Z,25.80
2022-11-15T00:21:29.863Z,23.93
2022-11-15T00:24:10.790Z,26.87
2022-11-15T00:26:51.417Z,26.03
2022-11-15T00:29:31.738Z,27.20
2022-11-15T00:32:12.322Z,27.40
2022-11-15T00:34:52.971Z,27.50
2022-11-15T00:37:33.521Z,28.73
2022-11-15T00:40:15.167Z,27.10
2022-11-15T00:42:55.742Z,28.33
2022-11-15T00:45:36.176Z,25.33
2022-11-15T00:48:16.611Z,26.00
2022-11-15T00:50:57.884Z,24.93
2022-11-15T00:53:38.464Z,28.53
2022-11-15T00:56:19.292Z,23.27
2022-11-15T00:58:59.607Z,23.60
2022-11-15T01:01:39.921Z,24.93
2022-11-15T01:04:20.863Z,22.87
2022-11-15T01:07:01.307Z,24.80
2022-11-15T01:09:41.619Z,23.80
2022-11-15T01:12:21.751Z,24.70
2022-11-15T01:15:02.506Z,22.67
2022-11-15T01:17:42.744Z,20.97
2022-11-15T01:20:22.846Z,22.57
2022-11-15T01:23:03.236Z,22.37
2022-11-15T01:25:43.819Z,25.50
2022-11-15T01:28:24.220Z,20.83
2022-11-15T01:31:08.692Z,24.17
2022-11-15T01:33:49.763Z,23.10
2022-11-15T01:36:30.173Z,25.17
2022-11-15T01:39:10.531Z,22.13
2022-11-15T01:41:50.882Z,23.93
2022-11-15T01:44:52.909Z,22.17
2022-11-15T01:47:44.127Z,21.03
2022-11-15T01:50:32.547Z,23.30
2022-11-15T01:53:13.493Z,22.40
2022-11-15T01:55:55.266Z,26.13
2022-11-15T01:58:38.041Z,23.93
2022-11-15T02:01:18.878Z,23.13
2022-11-15T02:04:08.155Z,22.57
2022-11-15T02:06:49.809Z,23.30
2022-11-15T02:09:31.147Z,21.30
2022-11-15T02:12:16.284Z,24.13
2022-11-15T02:14:57.722Z,25.27
2022-11-15T02:18:06.866Z,24.63
2022-11-15T02:21:23.597Z,22.10
2022-11-15T02:24:33.414Z,22.67
2022-11-15T02:27:47.944Z,23.97
2022-11-15T02:30:54.022Z,24.57
2022-11-15T02:34:09.372Z,22.37
2022-11-15T02:37:27.043Z,22.53
2022-11-15T02:40:44.477Z,21.10
2022-11-15T02:44:11.741Z,23.27
2022-11-15T02:47:15.891Z,23.37
2022-11-15T02:50:01.978Z,22.40
2022-11-15T02:52:46.460Z,28.17
2022-11-15T02:55:41.972Z,23.55
2022-11-15T02:58:42.171Z,25.33
2022-11-15T03:01:44.537Z,23.20
2022-11-15T03:04:52.845Z,27.50
2022-11-15T03:08:06.143Z,25.60
2022-11-15T03:10:59.229Z,26.13
2022-11-15T03:14:20.006Z,26.30
2022-11-15T03:17:07.359Z,23.40
2022-11-15T03:19:55.148Z,23.13
2022-11-15T03:22:43.641Z,25.67
2022-11-15T03:25:28.280Z,27.13
2022-11-15T03:28:18.165Z,26.30
2022-11-15T03:31:23.951Z,27.27
2022-11-15T03:34:11.479Z,28.48
2022-11-15T03:36:53.825Z,28.57
2022-11-15T03:39:35.872Z,27.23
2022-11-15T03:42:43.374Z,26.43
2022-11-15T03:45:35.157Z,27.60
2022-11-15T03:48:27.599Z,26.57
2022-11-15T03:51:08.612Z,28.13
2022-11-15T03:53:49.305Z,28.43
2022-11-15T03:56:29.664Z,24.03
2022-11-15T03:59:10.349Z,24.97
2022-11-15T04:01:50.582Z,30.20
2022-11-15T04:04:31.198Z,27.50
2022-11-15T04:07:12.186Z,25.93
2022-11-15T04:10:04.948Z,25.10
2022-11-15T04:12:48.702Z,28.43
2022-11-15T04:15:30.331Z,26.63
2022-11-15T04:18:10.796Z,34.20
2022-11-15T04:21:09.587Z,31.40
2022-11-15T04:23:52.614Z,31.80
2022-11-15T04:26:33.443Z,31.37
2022-11-15T04:29:32.081Z,33.27
2022-11-15T04:32:12.669Z,34.13
2022-11-15T04:34:53.197Z,31.23
2022-11-15T04:37:33.529Z,33.63
2022-11-15T04:40:14.375Z,34.40
2022-11-15T04:42:56.316Z,32.00
2022-11-15T04:45:39.934Z,31.57
2022-11-15T04:48:20.702Z,27.67
2022-11-15T04:51:00.777Z,31.30
2022-11-15T04:53:41.112Z,29.77
2022-11-15T04:56:22.128Z,27.77
2022-11-15T04:59:02.664Z,26.73
2022-11-15T05:01:45.048Z,25.27
2022-11-15T05:04:26.229Z,25.83
2022-11-15T05:07:06.973Z,27.47
2022-11-15T05:09:47.792Z,26.83
2022-11-15T05:12:28.029Z,27.17
2022-11-15T05:15:10.008Z,24.37
2022-11-15T05:17:50.193Z,26.43
2022-11-15T05:20:30.648Z,21.57
2022-11-15T05:23:11.060Z,28.27
2022-11-15T05:25:51.747Z,23.30
2022-11-15T05:28:33.364Z,22.17
2022-11-15T05:31:17.368Z,26.30
2022-11-15T05:34:01.017Z,23.87
2022-11-15T05:36:46.803Z,25.13
2022-11-15T05:39:27.185Z,25.27
2022-11-15T05:42:15.231Z,24.60
2022-11-15T05:44:55.757Z,21.93
2022-11-15T05:47:40.235Z,22.97
2022-11-15T05:50:20.871Z,24.65
2022-11-15T05:53:05.303Z,25.97
2022-11-15T05:55:46.426Z,24.73
2022-11-15T05:58:27.299Z,23.40
2022-11-15T06:01:07.706Z,24.73
2022-11-15T06:03:48.094Z,23.83
2022-11-15T06:06:31.447Z,22.93
2022-11-15T06:09:11.495Z,27.50
2022-11-15T06:11:52.056Z,23.73
2022-11-15T06:14:32.511Z,25.00
2022-11-15T06:17:12.747Z,23.67
2022-11-15T06:19:53.083Z,25.60
2022-11-15T06:22:33.763Z,21.03
2022-11-15T06:25:14.568Z,25.50
2022-11-15T06:27:59.764Z,22.00
2022-11-15T06:30:40.479Z,21.87
2022-11-15T06:33:21.061Z,21.50
2022-11-15T06:36:09.227Z,22.20
2022-11-15T06:38:52.707Z,19.67
2022-11-15T06:41:36.861Z,21.97
2022-11-15T06:44:17.537Z,20.95
2022-11-15T06:46:57.620Z,20.77
2022-11-15T06:49:38.185Z,21.07
2022-11-15T06:52:22.701Z,19.17
2022-11-15T06:55:02.818Z,22.20
2022-11-15T06:57:52.033Z,31.93
2022-11-15T07:00:32.510Z,45.03
2022-11-15T07:03:13.279Z,38.40
2022-11-15T07:05:56.207Z,28.73
2022-11-15T07:08:37.295Z,27.43
2022-11-15T07:11:17.791Z,20.83
2022-11-15T07:13:58.320Z,18.13
2022-11-15T07:16:39.005Z,18.30
2022-11-15T07:19:19.587Z,20.20
2022-11-15T07:21:59.989Z,18.87
2022-11-15T07:24:40.532Z,18.10
2022-11-15T07:27:20.999Z,17.97
2022-11-15T07:30:01.986Z,19.03
2022-11-15T07:32:42.465Z,25.00
2022-11-15T07:35:23.995Z,24.70
2022-11-15T07:38:04.773Z,20.53
2022-11-15T07:40:45.075Z,20.07
2022-11-15T07:43:25.950Z,21.33
2022-11-15T07:46:10.471Z,19.93
2022-11-15T07:48:51.116Z,21.67
2022-11-15T07:51:31.728Z,18.13
2022-11-15T07:54:12.390Z,16.23
2022-11-15T07:56:53.458Z,15.07
2022-11-15T07:59:34.505Z,13.53
2022-11-15T08:02:17.449Z,16.83
2022-11-15T08:04:58.330Z,15.73
2022-11-15T08:07:39.261Z,15.47
2022-11-15T08:10:21.095Z,15.33
2022-11-15T08:13:07.462Z,15.10
2022-11-15T08:15:50.130Z,16.33
2022-11-15T08:18:33.965Z,13.03
2022-11-15T08:21:20.543Z,15.33
2022-11-15T08:24:01.258Z,14.60
2022-11-15T08:26:41.971Z,17.90
2022-11-15T08:29:22.541Z,14.53
2022-11-15T08:32:03.016Z,13.03
2022-11-15T08:34:43.402Z,15.13
2022-11-15T08:37:23.775Z,13.63
2022-11-15T08:40:06.191Z,12.80
2022-11-15T08:42:50.279Z,12.03
2022-11-15T08:45:32.239Z,11.93
2022-11-15T08:48:13.019Z,10.77
2022-11-15T08:50:57.589Z,10.67
2022-11-15T08:53:38.080Z,10.93
2022-11-15T08:56:18.562Z,12.43
2022-11-15T08:58:58.758Z,11.20
2022-11-15T09:01:39.542Z,12.70
2022-11-15T09:04:19.843Z,11.67
2022-11-15T09:07:00.448Z,11.67
2022-11-15T09:09:41.068Z,12.83
2022-11-15T09:12:21.756Z,12.13
2022-11-15T09:15:02.156Z,10.17
2022-11-15T09:17:43.543Z,10.83
2022-11-15T09:20:24.011Z,9.83
2022-11-15T09:23:06.139Z,11.57
2022-11-15T09:25:46.452Z,10.13
2022-11-15T09:28:27.161Z,9.80
2022-11-15T09:31:07.541Z,9.23
2022-11-15T09:33:47.930Z,8.97
2022-11-15T09:36:28.606Z,12.07
2022-11-15T09:39:09.128Z,7.97
2022-11-15T09:41:58.167Z,6.97
2022-11-15T09:45:19.006Z,6.10
2022-11-15T09:48:37.638Z,7.53
2022-11-15T09:51:35.243Z,5.70
2022-11-15T09:57:16.243Z,7.67
2022-11-15T10:00:44.234Z,7.40
2022-11-15T10:03:17.532Z,4.57
2022-11-15T10:05:48.171Z,4.70
2022-11-15T10:08:53.567Z,5.70
2022-11-15T10:11:41.978Z,6.30
2022-11-15T10:14:16.778Z,5.07
2022-11-15T10:16:53.741Z,6.70
2022-11-15T10:19:38.989Z,3.73
2022-11-15T10:24:45.380Z,5.30
2022-11-15T10:27:19.736Z,4.87
2022-11-15T10:29:47.363Z,3.75
2022-11-15T10:32:13.154Z,5.13
2022-11-15T10:34:37.431Z,4.13
2022-11-15T10:37:02.996Z,5.50
2022-11-15T10:39:26.071Z,4.70
2022-11-15T10:41:48.164Z,5.43
2022-11-15T10:44:32.874Z,6.30
2022-11-15T10:46:57.935Z,2.35
2022-11-15T10:49:32.179Z,2.83
2022-11-15T10:51:58.342Z,2.80
2022-11-15T10:54:43.643Z,3.70
2022-11-15T10:59:52.153Z,4.13
2022-11-15T11:02:45.609Z,5.83
2022-11-15T11:05:42.095Z,2.73
2022-11-15T11:08:17.076Z,4.07
2022-11-15T11:11:01.447Z,4.57
2022-11-15T11:13:28.271Z,4.70
2022-11-15T11:16:07.171Z,4.17
2022-11-15T11:18:46.676Z,1.90
2022-11-15T11:21:18.496Z,3.50
2022-11-15T11:24:31.775Z,3.87
2022-11-15T11:27:21.431Z,3.30
2022-11-15T11:29:49.266Z,5.10
2022-11-15T11:33:10.187Z,3.40
2022-11-15T11:36:17.256Z,6.17
2022-11-15T11:39:25.262Z,5.47
2022-11-15T11:42:16.117Z,4.20
2022-11-15T11:45:17.182Z,2.70
2022-11-15T11:47:52.283Z,3.50
2022-11-15T11:50:28.951Z,3.97
2022-11-15T11:53:05.796Z,3.80
2022-11-15T11:55:39.661Z,3.57
2022-11-15T11:58:33.101Z,1.67
2022-11-15T12:01:31.941Z,2.43
2022-11-15T12:04:15.580Z,2.20
2022-11-15T12:07:32.181Z,3.83
2022-11-15T12:10:06.704Z,4.43
2022-11-15T12:12:52.581Z,2.15
2022-11-15T12:15:21.990Z,2.67
2022-11-15T12:17:46.946Z,4.10
2022-11-15T12:20:26.096Z,2.60
2022-11-15T12:22:58.204Z,2.50
2022-11-15T12:25:29.921Z,3.27
2022-11-15T12:28:01.403Z,4.43
2022-11-15T12:30:27.092Z,3.67
2022-11-15T12:33:01.642Z,2.67
2022-11-15T12:35:44.072Z,3.53
2022-11-15T12:38:31.845Z,4.27
2022-11-15T12:41:16.007Z,2.97
2022-11-15T12:43:44.082Z,3.93
2022-11-15T12:46:12.432Z,4.93
2022-11-15T12:48:37.275Z,2.47
2022-11-15T12:51:01.034Z,2.83
2022-11-15T12:53:26.093Z,4.10
2022-11-15T12:56:13.478Z,2.67
2022-11-15T12:59:01.966Z,2.77
2022-11-15T13:01:33.581Z,5.33
2022-11-15T13:04:27.984Z,3.80
2022-11-15T13:07:04.364Z,4.17
2022-11-15T13:09:29.355Z,2.53
2022-11-15T13:11:52.658Z,3.17
2022-11-15T13:14:45.761Z,3.03
2022-11-15T13:17:19.918Z,2.90
2022-11-15T13:19:42.309Z,5.05
2022-11-15T13:22:29.155Z,4.20
2022-11-15T13:24:51.129Z,2.73
2022-11-15T13:27:21.046Z,2.57
2022-11-15T13:29:44.690Z,2.73
2022-11-15T13:32:16.458Z,3.00
2022-11-15T13:34:54.032Z,3.53
2022-11-15T13:37:21.985Z,3.77
2022-11-15T13:39:43.980Z,4.03
2022-11-15T13:42:06.023Z,5.50
2022-11-15T13:44:34.477Z,3.63
2022-11-15T13:47:14.542Z,2.40
2022-11-15T13:49:36.603Z,3.23
2022-11-15T13:52:00.925Z,2.53
2022-11-15T13:54:33.843Z,5.47
2022-11-15T13:57:26.649Z,2.50
2022-11-15T13:59:55.752Z,3.17
2022-11-15T14:02:32.482Z,3.67
2022-11-15T14:05:20.787Z,3.57
2022-11-15T14:08:13.270Z,2.17
2022-11-15T14:10:38.517Z,2.63
2022-11-15T14:13:01.586Z,3.17
2022-11-15T14:15:35.989Z,3.13
2022-11-15T14:17:58.474Z,2.80
2022-11-15T14:20:36.458Z,3.90
2022-11-15T14:23:25.804Z,4.00
2022-11-15T14:25:59.730Z,3.13
2022-11-15T14:28:24.598Z,2.97
2022-11-15T14:30:51.012Z,3.67
2022-11-15T14:33:30.797Z,3.83
2022-11-15T14:35:53.906Z,3.77
2022-11-15T14:38:16.303Z,3.57
2022-11-15T14:40:38.853Z,4.23
2022-11-15T14:43:01.338Z,4.10
2022-11-15T14:45:23.845Z,2.40
2022-11-15T14:47:46.544Z,4.10
2022-11-15T14:50:16.866Z,6.47
2022-11-15T14:52:38.854Z,6.27
2022-11-15T14:55:03.321Z,5.57
2022-11-15T14:59:47.868Z,17.47
2022-11-15T15:02:22.679Z,7.60
2022-11-15T15:04:44.598Z,2.65
2022-11-15T15:07:06.701Z,3.53
2022-11-15T15:09:28.861Z,2.20
2022-11-15T15:11:50.699Z,5.47
2022-11-15T15:14:15.328Z,7.20
2022-11-15T15:16:37.382Z,4.47
2022-11-15T15:18:59.299Z,4.07
2022-11-15T15:21:36.769Z,10.03
2022-11-15T15:23:59.479Z,6.13
2022-11-15T15:26:23.618Z,5.33
2022-11-15T15:28:52.309Z,6.70
2022-11-15T15:31:14.372Z,6.43
2022-11-15T15:33:37.259Z,5.63
2022-11-15T15:36:00.224Z,5.80
2022-11-15T15:38:22.655Z,4.70
2022-11-15T15:40:44.902Z,5.00
2022-11-15T15:43:09.912Z,3.13
2022-11-15T15:45:33.302Z,2.27
2022-11-15T15:47:55.472Z,4.60
2022-11-15T15:50:26.336Z,4.00
2022-11-15T15:52:48.790Z,4.40
2022-11-15T15:55:11.669Z,5.53
2022-11-15T15:57:33.697Z,4.33
2022-11-15T15:59:55.561Z,3.83
2022-11-15T16:02:17.430Z,3.03
2022-11-15T16:04:39.753Z,6.53
2022-11-15T16:07:03.459Z,7.87
2022-11-15T16:09:45.461Z,11.45
2022-11-15T16:12:07.465Z,6.23
2022-11-15T16:14:29.375Z,4.60
2022-11-15T16:16:51.289Z,5.27
2022-11-15T16:19:13.354Z,4.57
2022-11-15T16:21:36.772Z,6.83
2022-11-15T16:23:58.654Z,3.80
2022-11-15T16:26:29.184Z,4.30
2022-11-15T16:28:51.172Z,5.00
2022-11-15T16:31:14.097Z,4.17
2022-11-15T16:33:37.207Z,5.20
2022-11-15T16:35:59.483Z,4.17
2022-11-15T16:38:21.585Z,4.90
2022-11-15T16:40:43.862Z,4.27
2022-11-15T16:43:06.564Z,4.73
2022-11-15T16:45:29.424Z,23.13
2022-11-15T16:47:51.609Z,13.53
2022-11-15T16:50:26.454Z,6.03
2022-11-15T16:52:48.511Z,4.20
2022-11-15T16:55:10.668Z,6.73
2022-11-15T16:57:32.570Z,5.87
2022-11-15T16:59:54.490Z,8.47
2022-11-15T17:02:17.302Z,4.87
2022-11-15T17:04:39.550Z,6.77
2022-11-15T17:07:01.631Z,9.37
2022-11-15T17:09:24.822Z,5.43
2022-11-15T17:11:47.230Z,6.27
2022-11-15T17:14:10.008Z,4.13
2022-11-15T17:16:31.978Z,5.27
2022-11-15T17:18:54.019Z,6.40
2022-11-15T17:21:22.490Z,4.03
2022-11-15T17:23:44.852Z,6.27
2022-11-15T17:26:27.907Z,7.50
2022-11-15T17:28:49.563Z,6.77
2022-11-15T17:31:14.806Z,6.93
2022-11-15T17:33:38.129Z,6.43
2022-11-15T17:36:05.068Z,6.17
2022-11-15T17:38:28.520Z,5.40
2022-11-15T17:41:05.886Z,8.57
2022-11-15T17:43:28.357Z,7.87
2022-11-15T17:45:50.397Z,6.07
2022-11-15T17:48:12.303Z,6.20
2022-11-15T17:50:34.412Z,6.97
2022-11-15T17:52:57.460Z,6.03
2022-11-15T17:55:19.494Z,6.83
2022-11-15T17:57:43.616Z,5.33
2022-11-15T18:00:06.556Z,9.07
2022-11-15T18:02:28.413Z,6.23
2022-11-15T18:04:50.510Z,6.43
2022-11-15T18:07:14.281Z,6.20
2022-11-15T18:09:36.485Z,7.75
2022-11-15T18:11:58.775Z,6.50
2022-11-15T18:14:20.989Z,6.57
2022-11-15T18:16:43.049Z,5.60
2022-11-15T18:19:09.077Z,7.63
2022-11-15T18:21:34.002Z,10.57
2022-11-15T18:23:59.977Z,5.90
2022-11-15T18:26:27.104Z,8.77
2022-11-15T18:28:49.913Z,7.00
2022-11-15T18:31:29.244Z,7.37
2022-11-15T18:33:52.486Z,7.17
2022-11-15T18:36:19.355Z,6.90
2022-11-15T18:38:41.872Z,6.60
2022-11-15T18:41:12.366Z,6.97
2022-11-15T18:43:35.601Z,7.67
2022-11-15T18:46:13.320Z,6.40
2022-11-15T18:48:37.835Z,7.13
2022-11-15T18:53:30.061Z,6.87
2022-11-15T18:55:52.014Z,6.83
2022-11-15T18:58:13.913Z,8.43
2022-11-15T19:00:35.879Z,6.43
2022-11-15T19:02:57.840Z,7.37
2022-11-15T19:05:21.422Z,6.67
2022-11-15T19:07:43.331Z,7.67
2022-11-15T19:10:06.200Z,6.90
2022-11-15T19:12:28.068Z,6.47
2022-11-15T19:14:50.321Z,9.10
2022-11-15T19:17:12.254Z,6.80
2022-11-15T19:19:34.408Z,7.33
2022-11-15T19:21:57.535Z,6.30
2022-11-15T19:24:20.491Z,5.53
2022-11-15T19:26:43.750Z,8.50
2022-11-15T19:29:10.373Z,7.03
2022-11-15T19:31:33.308Z,7.30
2022-11-15T19:33:58.221Z,6.83
2022-11-15T19:36:32.373Z,7.30
2022-11-15T19:38:56.042Z,6.72
2022-11-15T19:41:22.774Z,6.63
2022-11-15T19:43:47.999Z,6.73
2022-11-15T19:46:12.345Z,5.70
2022-11-15T19:48:35.116Z,7.55
2022-11-15T19:51:05.529Z,7.90
2022-11-15T19:53:33.341Z,5.83
2022-11-15T19:56:01.909Z,7.67
2022-11-15T19:58:24.731Z,5.90
2022-11-15T20:00:46.664Z,7.73
2022-11-15T20:03:08.554Z,7.70
2022-11-15T20:05:30.480Z,7.20
2022-11-15T20:07:52.381Z,7.17
2022-11-15T20:10:18.132Z,7.27
2022-11-15T20:12:42.988Z,7.03
2022-11-15T20:15:06.378Z,8.57
2022-11-15T20:17:28.253Z,9.27
2022-11-15T20:19:50.267Z,10.73
2022-11-15T20:22:12.284Z,8.53
2022-11-15T20:24:35.377Z,7.80
2022-11-15T20:26:57.945Z,8.87
2022-11-15T20:29:20.010Z,7.60
2022-11-15T20:31:42.489Z,9.63
2022-11-15T20:34:05.400Z,10.87
2022-11-15T20:36:31.455Z,9.47
2022-11-15T20:39:00.659Z,9.97
2022-11-15T20:41:23.046Z,8.47
2022-11-15T20:43:45.732Z,8.23
2022-11-15T20:46:07.729Z,8.33
2022-11-15T20:48:30.709Z,8.30
2022-11-15T20:51:09.773Z,8.80
2022-11-15T20:53:32.409Z,9.97
2022-11-15T20:55:55.099Z,9.90
2022-11-15T20:58:18.234Z,10.13
2022-11-15T21:00:42.145Z,9.60
2022-11-15T21:03:07.696Z,9.43
2022-11-15T21:05:29.881Z,8.10
2022-11-15T21:07:51.721Z,10.00
2022-11-15T21:10:31.974Z,10.90
2022-11-15T21:12:53.964Z,8.40
2022-11-15T21:15:16.057Z,10.57
2022-11-15T21:17:37.991Z,12.63
2022-11-15T21:20:00.061Z,9.33
2022-11-15T21:22:22.055Z,8.73
2022-11-15T21:24:43.971Z,9.93
2022-11-15T21:27:06.465Z,10.07
2022-11-15T21:29:36.360Z,11.03
2022-11-15T21:32:00.680Z,9.63
2022-11-15T21:34:24.794Z,11.13
2022-11-15T21:36:47.050Z,10.87
2022-11-15T21:39:09.938Z,11.13
2022-11-15T21:41:32.496Z,11.17
2022-11-15T21:43:59.539Z,10.13
2022-11-15T21:46:21.520Z,9.77
2022-11-15T21:48:43.676Z,10.07
2022-11-15T21:51:11.072Z,9.53
2022-11-15T21:53:34.219Z,10.40
2022-11-15T21:55:56.524Z,10.97
2022-11-15T21:58:19.927Z,11.33
2022-11-15T22:01:20.162Z,12.87
2022-11-15T22:03:43.647Z,9.77
2022-11-15T22:06:05.952Z,11.23
2022-11-15T22:08:28.076Z,10.73
2022-11-15T22:10:51.127Z,10.00
2022-11-15T22:13:13.761Z,11.43
2022-11-15T22:15:36.067Z,11.40
2022-11-15T22:17:57.872Z,11.27
2022-11-15T22:20:43.679Z,11.10
2022-11-15T22:23:02.843Z,13.30
2022-11-15T22:25:26.230Z,10.33
2022-11-15T22:27:48.162Z,11.90
2022-11-15T22:30:11.152Z,11.77
2022-11-15T22:32:33.155Z,10.70
2022-11-15T22:34:55.133Z,10.30
2022-11-15T22:37:21.162Z,10.90
2022-11-15T22:39:43.250Z,12.30
2022-11-15T22:42:05.122Z,13.97
2022-11-15T22:44:26.904Z,10.07
2022-11-15T22:46:48.731Z,10.63
2022-11-15T22:49:10.617Z,11.87
2022-11-15T22:51:32.473Z,12.43
2022-11-15T22:53:54.310Z,11.60
2022-11-15T22:56:20.114Z,13.23
2022-11-15T22:58:42.245Z,12.40
2022-11-15T23:01:05.964Z,11.93
2022-11-15T23:03:29.608Z,12.65
2022-11-15T23:05:51.738Z,12.30
2022-11-15T23:08:14.390Z,15.63
2022-11-15T23:10:58.580Z,13.77
2022-11-15T23:13:20.497Z,12.90
2022-11-15T23:16:08.600Z,13.70
2022-11-15T23:18:37.712Z,12.33
2022-11-15T23:20:59.676Z,12.87
2022-11-15T23:23:21.786Z,12.70
2022-11-15T23:25:43.698Z,14.07
2022-11-15T23:28:06.152Z,11.30
2022-11-15T23:30:46.519Z,13.90
2022-11-15T23:33:34.122Z,11.97
2022-11-15T23:35:56.273Z,12.43
2022-11-15T23:38:21.419Z,12.53
2022-11-15T23:40:43.522Z,13.73
2022-11-15T23:43:05.536Z,14.33
2022-11-15T23:45:27.593Z,15.17
2022-11-15T23:47:49.625Z,14.47
2022-11-15T23:50:11.865Z,16.70
2022-11-15T23:52:33.784Z,13.20
2022-11-15T23:54:55.643Z,14.63
2022-11-15T23:57:17.604Z,14.13
2022-11-15T23:59:43.615Z,14.33
